createdAt,value
2022-12-19T00:01:26.450Z,45.27
2022-12-19T00:03:56.611Z,46.17
2022-12-19T00:06:26.376Z,49.20
2022-12-19T00:08:55.849Z,49.03
2022-12-19T00:11:27.129Z,47.13
2022-12-19T00:13:55.949Z,44.90
2022-12-19T00:16:26.128Z,48.73
2022-12-19T00:18:56.345Z,48.67
2022-12-19T00:21:26.711Z,51.57
2022-12-19T00:23:55.413Z,41.88
2022-12-19T00:26:27.223Z,45.75
2022-12-19T00:28:58.229Z,45.55
2022-12-19T00:31:28.085Z,44.40
2022-12-19T00:33:57.142Z,46.20
2022-12-19T00:36:28.092Z,48.42
2022-12-19T00:38:59.063Z,50.13
2022-12-19T00:41:30.953Z,47.03
2022-12-19T00:44:01.116Z,53.77
2022-12-19T00:46:30.936Z,41.35
2022-12-19T00:48:59.812Z,48.87
2022-12-19T00:51:30.633Z,51.57
2022-12-19T00:53:59.853Z,47.33
2022-12-19T00:56:37.792Z,44.90
2022-12-19T00:59:08.963Z,53.15
2022-12-19T01:01:40.419Z,45.63
2022-12-19T01:04:28.127Z,46.87
2022-12-19T01:07:02.117Z,43.33
2022-12-19T01:09:34.095Z,46.73
2022-12-19T01:12:24.401Z,45.90
2022-12-19T01:15:03.776Z,48.70
2022-12-19T01:17:44.311Z,41.85
2022-12-19T01:20:15.048Z,47.47
2022-12-19T01:22:43.655Z,46.15
2022-12-19T01:25:15.757Z,43.15
2022-12-19T01:27:45.802Z,51.97
2022-12-19T01:30:14.899Z,48.17
2022-12-19T01:32:43.934Z,48.78
2022-12-19T01:35:21.801Z,47.83
2022-12-19T01:37:51.622Z,48.72
2022-12-19T01:40:21.502Z,45.25
2022-12-19T01:42:51.437Z,43.30
2022-12-19T01:45:34.462Z,46.22
2022-12-19T01:48:19.682Z,40.20
2022-12-19T01:51:00.836Z,46.35
2022-12-19T01:53:45.168Z,41.63
2022-12-19T01:56:21.005Z,43.40
2022-12-19T01:59:01.764Z,48.57
2022-12-19T02:01:47.048Z,48.90
2022-12-19T02:04:25.261Z,44.25
2022-12-19T02:06:56.106Z,43.80
2022-12-19T02:09:26.669Z,43.30
2022-12-19T02:11:55.568Z,44.05
2022-12-19T02:14:27.326Z,44.60
2022-12-19T02:17:02.000Z,45.97
2022-12-19T02:20:09.668Z,45.97
2022-12-19T02:22:52.665Z,47.53
2022-12-19T02:25:51.290Z,47.38
2022-12-19T02:28:56.078Z,43.60
2022-12-19T02:31:31.587Z,48.97
2022-12-19T02:34:09.651Z,43.25
2022-12-19T02:36:51.687Z,44.30
2022-12-19T02:39:27.910Z,53.08
2022-12-19T02:42:00.693Z,49.25
2022-12-19T02:44:33.591Z,51.75
2022-12-19T02:47:06.443Z,44.13
2022-12-19T02:49:38.794Z,46.55
2022-12-19T02:52:12.140Z,41.97
2022-12-19T02:54:45.123Z,40.20
2022-12-19T02:57:22.452Z,43.17
2022-12-19T02:59:58.973Z,51.20
2022-12-19T03:02:37.135Z,44.55
2022-12-19T03:05:15.334Z,44.88
2022-12-19T03:07:51.446Z,48.53
2022-12-19T03:10:27.308Z,46.28
2022-12-19T03:13:01.784Z,40.65
2022-12-19T03:15:30.809Z,51.25
2022-12-19T03:18:02.109Z,43.53
2022-12-19T03:20:45.501Z,57.42
2022-12-19T03:23:14.947Z,47.53
2022-12-19T03:25:47.479Z,52.58
2022-12-19T03:28:24.466Z,47.22
2022-12-19T03:30:54.970Z,47.50
2022-12-19T03:33:29.955Z,46.03
2022-12-19T03:36:00.908Z,49.85
2022-12-19T03:38:30.182Z,47.95
2022-12-19T03:41:00.857Z,44.35
2022-12-19T03:43:29.176Z,49.55
2022-12-19T03:45:59.499Z,43.08
2022-12-19T03:48:36.101Z,48.08
2022-12-19T03:51:11.447Z,47.92
2022-12-19T03:53:52.053Z,41.95
2022-12-19T03:56:32.130Z,45.13
2022-12-19T03:59:06.105Z,46.20
2022-12-19T04:01:36.304Z,44.17
2022-12-19T04:04:07.458Z,48.22
2022-12-19T04:06:36.851Z,41.58
2022-12-19T04:09:05.863Z,53.08
2022-12-19T04:11:39.174Z,46.35
2022-12-19T04:14:13.361Z,50.38
2022-12-19T04:16:48.768Z,47.67
2022-12-19T04:19:25.050Z,48.47
2022-12-19T04:21:58.681Z,41.03
2022-12-19T04:24:32.105Z,43.42
2022-12-19T04:27:02.991Z,44.85
2022-12-19T04:29:35.137Z,45.67
2022-12-19T04:32:05.442Z,45.80
2022-12-19T04:34:38.938Z,40.67
2022-12-19T04:37:12.367Z,42.90
2022-12-19T04:39:41.116Z,45.70
2022-12-19T04:42:09.707Z,41.15
2022-12-19T04:44:38.353Z,46.88
2022-12-19T04:47:07.022Z,44.95
2022-12-19T04:49:36.962Z,59.45
2022-12-19T04:52:05.844Z,53.72
2022-12-19T04:54:36.641Z,45.00
2022-12-19T04:57:05.309Z,58.42
2022-12-19T04:59:33.949Z,64.90
2022-12-19T05:02:02.601Z,59.90
2022-12-19T05:04:31.343Z,62.03
2022-12-19T05:07:01.255Z,49.10
2022-12-19T05:09:29.879Z,56.08
2022-12-19T05:11:58.407Z,52.92
2022-12-19T05:14:26.927Z,49.85
2022-12-19T05:17:01.104Z,49.08
2022-12-19T05:19:30.737Z,48.10
2022-12-19T05:22:00.815Z,46.13
2022-12-19T05:24:29.928Z,47.17
2022-12-19T05:26:58.469Z,54.78
2022-12-19T05:29:27.107Z,54.70
2022-12-19T05:31:55.762Z,57.67
2022-12-19T05:34:25.613Z,52.17
2022-12-19T05:36:54.200Z,45.72
2022-12-19T05:39:24.614Z,46.47
2022-12-19T05:41:53.195Z,52.67
2022-12-19T05:44:21.954Z,52.75
2022-12-19T05:46:50.551Z,50.75
2022-12-19T05:49:19.104Z,47.80
2022-12-19T05:51:48.126Z,47.88
2022-12-19T05:54:16.746Z,47.10
2022-12-19T05:56:46.655Z,45.72
2022-12-19T05:59:15.208Z,48.47
2022-12-19T06:01:43.857Z,48.95
2022-12-19T06:04:12.441Z,48.55
2022-12-19T06:06:41.485Z,44.88
2022-12-19T06:09:10.089Z,47.05
2022-12-19T06:11:38.730Z,44.80
2022-12-19T06:14:08.684Z,44.95
2022-12-19T06:16:37.245Z,49.72
2022-12-19T06:19:05.891Z,44.75
2022-12-19T06:21:34.482Z,44.00
2022-12-19T06:24:03.024Z,50.22
2022-12-19T06:26:31.861Z,41.42
2022-12-19T06:29:00.445Z,42.40
2022-12-19T06:31:30.444Z,46.65
2022-12-19T06:33:59.108Z,40.33
2022-12-19T06:36:29.740Z,45.92
2022-12-19T06:38:58.889Z,43.75
2022-12-19T06:41:45.672Z,47.88
2022-12-19T06:44:16.436Z,39.42
2022-12-19T06:46:46.400Z,42.75
2022-12-19T06:49:15.088Z,42.47
2022-12-19T06:51:43.733Z,50.05
2022-12-19T06:54:12.394Z,42.97
2022-12-19T06:56:43.068Z,39.00
2022-12-19T06:59:14.462Z,44.05
2022-12-19T07:01:56.888Z,45.78
2022-12-19T07:04:30.410Z,40.83
2022-12-19T07:06:59.872Z,42.65
2022-12-19T07:09:31.428Z,54.70
2022-12-19T07:11:59.943Z,51.92
2022-12-19T07:14:28.533Z,50.38
2022-12-19T07:17:01.098Z,48.38
2022-12-19T07:19:31.619Z,43.83
2022-12-19T07:22:01.889Z,49.88
2022-12-19T07:24:30.867Z,47.88
2022-12-19T07:26:59.560Z,43.05
2022-12-19T07:29:28.150Z,47.25
2022-12-19T07:31:58.168Z,49.80
2022-12-19T07:34:26.745Z,47.78
2022-12-19T07:36:55.504Z,61.17
2022-12-19T07:39:24.305Z,54.60
2022-12-19T07:41:52.817Z,54.15
2022-12-19T07:44:31.817Z,47.72
2022-12-19T07:47:01.901Z,46.50
2022-12-19T07:49:30.627Z,55.40
2022-12-19T07:51:59.506Z,54.30
2022-12-19T07:54:28.173Z,47.40
2022-12-19T07:56:56.700Z,46.97
2022-12-19T07:59:30.384Z,49.78
2022-12-19T08:02:02.368Z,38.50
2022-12-19T08:04:31.421Z,43.85
2022-12-19T08:07:00.040Z,47.30
2022-12-19T08:09:28.683Z,45.38
2022-12-19T08:11:57.834Z,55.40
2022-12-19T08:14:26.545Z,41.17
2022-12-19T08:17:19.831Z,48.70
2022-12-19T08:19:45.296Z,45.88
2022-12-19T08:22:13.957Z,53.08
2022-12-19T08:24:42.485Z,53.10
2022-12-19T08:27:11.870Z,52.38
2022-12-19T08:29:40.455Z,55.17
2022-12-19T08:32:08.968Z,56.50
2022-12-19T08:34:37.473Z,47.60
2022-12-19T08:37:07.493Z,46.67
2022-12-19T08:39:36.102Z,42.45
2022-12-19T08:42:05.092Z,45.88
2022-12-19T08:44:33.748Z,43.97
2022-12-19T08:47:02.339Z,54.53
2022-12-19T08:49:30.955Z,51.85
2022-12-19T08:51:59.590Z,51.63
2022-12-19T08:54:29.663Z,47.90
2022-12-19T08:56:58.912Z,45.50
2022-12-19T08:59:31.734Z,46.03
2022-12-19T09:02:01.696Z,43.67
2022-12-19T09:06:00.116Z,43.33
2022-12-19T09:07:19.552Z,51.40
2022-12-19T09:09:49.427Z,54.45
2022-12-19T09:12:17.996Z,48.45
2022-12-19T09:14:46.743Z,45.58
2022-12-19T09:17:15.473Z,48.28
2022-12-19T09:19:47.839Z,44.97
2022-12-19T09:22:17.509Z,47.08
2022-12-19T09:24:46.971Z,46.33
2022-12-19T09:27:17.116Z,39.50
2022-12-19T09:29:46.033Z,40.15
2022-12-19T09:32:14.592Z,40.22
2022-12-19T09:34:43.106Z,49.50
2022-12-19T09:37:17.230Z,39.42
2022-12-19T09:39:47.159Z,46.22
2022-12-19T09:42:40.767Z,40.63
2022-12-19T09:45:28.186Z,45.00
2022-12-19T09:48:02.317Z,40.53
2022-12-19T09:50:37.853Z,40.60
2022-12-19T09:53:26.667Z,48.60
2022-12-19T09:55:55.509Z,43.03
2022-12-19T09:58:38.485Z,41.28
2022-12-19T10:01:15.519Z,45.25
2022-12-19T10:03:48.272Z,34.63
2022-12-19T10:07:22.025Z,40.85
2022-12-19T10:10:58.079Z,42.58
2022-12-19T10:12:45.783Z,39.45
2022-12-19T10:15:18.839Z,42.58
2022-12-19T10:18:06.148Z,37.92
2022-12-19T10:20:38.495Z,42.03
2022-12-19T10:23:25.904Z,41.13
2022-12-19T10:26:01.203Z,35.92
2022-12-19T10:28:57.681Z,40.80
2022-12-19T10:31:34.447Z,36.42
2022-12-19T10:34:13.454Z,39.75
2022-12-19T10:37:19.052Z,44.80
2022-12-19T10:39:56.061Z,35.22
2022-12-19T10:42:33.240Z,39.05
2022-12-19T10:45:09.990Z,35.25
2022-12-19T10:47:41.735Z,40.08
2022-12-19T10:50:13.561Z,42.63
2022-12-19T10:52:49.064Z,43.35
2022-12-19T10:55:39.991Z,38.65
2022-12-19T10:58:19.026Z,45.63
2022-12-19T11:00:59.130Z,38.13
2022-12-19T11:03:29.729Z,43.17
2022-12-19T11:05:59.166Z,37.60
2022-12-19T11:08:29.208Z,39.55
2022-12-19T11:12:32.305Z,38.58
2022-12-19T11:18:51.997Z,39.25
2022-12-19T11:25:24.858Z,38.25
2022-12-19T11:29:26.118Z,37.50
2022-12-19T11:29:40.287Z,38.03
2022-12-19T11:30:05.876Z,39.72
2022-12-19T11:30:35.209Z,40.75
2022-12-19T11:34:05.950Z,37.15
2022-12-19T11:36:42.080Z,35.17
2022-12-19T11:39:17.729Z,32.72
2022-12-19T11:42:01.720Z,36.45
2022-12-19T11:44:35.589Z,38.53
2022-12-19T11:47:12.287Z,36.67
2022-12-19T11:49:47.039Z,35.50
2022-12-19T11:55:21.185Z,35.28
2022-12-19T11:57:49.976Z,34.70
2022-12-19T12:00:21.548Z,32.63
2022-12-19T12:03:26.664Z,39.53
2022-12-19T12:05:58.379Z,37.08
2022-12-19T12:09:27.092Z,36.17
2022-12-19T12:18:29.830Z,36.30
2022-12-19T12:24:45.549Z,32.53
2022-12-19T12:31:01.332Z,33.78
2022-12-19T12:31:51.158Z,30.25
2022-12-19T12:31:56.856Z,30.70
2022-12-19T12:32:02.750Z,35.08
2022-12-19T12:35:09.401Z,34.33
2022-12-19T12:35:47.062Z,28.63
2022-12-19T12:38:47.202Z,33.00
2022-12-19T12:41:47.154Z,31.45
2022-12-19T12:44:16.536Z,34.40
2022-12-19T12:46:49.978Z,33.40
2022-12-19T12:49:33.547Z,32.13
2022-12-19T12:52:04.313Z,30.38
2022-12-19T12:54:36.287Z,26.15
2022-12-19T12:57:06.965Z,27.08
2022-12-19T12:59:35.562Z,34.72
2022-12-19T13:02:15.881Z,26.85
2022-12-19T13:04:56.156Z,30.25
2022-12-19T13:07:42.310Z,30.70
2022-12-19T13:10:22.406Z,27.83
2022-12-19T13:13:00.638Z,26.80
2022-12-19T13:15:44.668Z,23.13
2022-12-19T13:18:29.822Z,24.30
2022-12-19T13:20:59.697Z,27.15
2022-12-19T13:23:45.374Z,27.45
2022-12-19T13:26:49.379Z,25.65
2022-12-19T13:32:54.428Z,21.83
2022-12-19T13:39:13.687Z,22.73
2022-12-19T13:39:49.873Z,19.77
2022-12-19T13:41:46.003Z,20.02
2022-12-19T13:44:14.927Z,20.70
2022-12-19T13:46:45.553Z,19.10
2022-12-19T13:49:18.977Z,17.90
2022-12-19T13:51:50.557Z,20.10
2022-12-19T13:54:22.827Z,21.10
2022-12-19T13:56:52.773Z,19.83
2022-12-19T13:59:23.491Z,16.83
2022-12-19T14:01:54.271Z,18.75
2022-12-19T14:04:28.968Z,18.17
2022-12-19T14:07:02.788Z,17.15
2022-12-19T14:11:32.403Z,17.10
2022-12-19T14:14:01.048Z,18.40
2022-12-19T14:15:34.843Z,19.15
2022-12-19T14:18:42.292Z,19.98
2022-12-19T14:22:04.873Z,19.92
2022-12-19T14:24:18.000Z,23.35
2022-12-19T14:28:25.081Z,18.10
2022-12-19T14:30:29.329Z,18.73
2022-12-19T14:33:45.706Z,18.42
2022-12-19T14:36:07.919Z,19.77
2022-12-19T14:39:25.134Z,22.88
2022-12-19T14:41:37.844Z,20.65
2022-12-19T14:52:53.652Z,19.35
2022-12-19T14:53:51.549Z,18.05
2022-12-19T14:54:11.219Z,20.63
2022-12-19T14:54:33.977Z,16.65
2022-12-19T14:56:19.781Z,18.73
2022-12-19T14:58:53.835Z,19.73
2022-12-19T15:01:27.056Z,18.73
2022-12-19T15:04:52.890Z,18.48
2022-12-19T15:07:09.060Z,16.48
2022-12-19T15:11:03.349Z,19.00
2022-12-19T15:14:55.373Z,19.48
2022-12-19T15:15:59.180Z,17.42
2022-12-19T15:18:38.137Z,17.23
2022-12-19T15:21:08.654Z,22.15
2022-12-19T15:23:37.296Z,18.85
2022-12-19T15:26:08.850Z,18.02
2022-12-19T15:28:43.229Z,19.15
2022-12-19T15:31:26.514Z,19.40
2022-12-19T15:36:43.915Z,18.65
2022-12-19T15:39:12.500Z,22.52
2022-12-19T15:41:41.715Z,18.98
2022-12-19T15:44:16.790Z,20.80
2022-12-19T15:46:49.351Z,16.85
2022-12-19T15:49:19.811Z,21.05
2022-12-19T15:51:49.232Z,23.00
2022-12-19T15:57:07.391Z,17.88
2022-12-19T15:59:40.012Z,21.15
2022-12-19T16:02:18.207Z,18.73
2022-12-19T16:04:48.792Z,18.05
2022-12-19T16:07:18.784Z,17.52
2022-12-19T16:09:47.920Z,17.15
2022-12-19T16:12:19.955Z,19.30
2022-12-19T16:14:53.526Z,17.75
2022-12-19T16:17:25.394Z,19.63
2022-12-19T16:19:53.901Z,17.67
2022-12-19T16:22:24.432Z,17.10
2022-12-19T16:24:53.997Z,16.42
2022-12-19T16:27:26.893Z,16.67
2022-12-19T16:29:56.821Z,15.38
2022-12-19T16:32:26.892Z,16.05
2022-12-19T16:34:55.520Z,15.57
2022-12-19T16:37:31.822Z,18.27
2022-12-19T16:40:02.009Z,14.40
2022-12-19T16:42:31.257Z,12.82
2022-12-19T16:44:59.948Z,12.00
2022-12-19T16:47:29.882Z,12.80
2022-12-19T16:49:58.943Z,13.27
2022-12-19T16:52:27.512Z,12.48
2022-12-19T16:54:56.144Z,12.30
2022-12-19T16:57:24.771Z,15.15
2022-12-19T16:59:53.303Z,13.52
2022-12-19T17:02:54.060Z,16.48
2022-12-19T17:05:26.382Z,15.30
2022-12-19T17:07:55.368Z,15.63
2022-12-19T17:10:29.805Z,12.68
2022-12-19T17:13:00.104Z,15.90
2022-12-19T17:15:30.292Z,13.73
2022-12-19T17:18:02.216Z,17.83
2022-12-19T17:20:38.403Z,16.25
2022-12-19T17:23:14.207Z,17.98
2022-12-19T17:25:43.024Z,15.07
2022-12-19T17:28:12.661Z,18.20
2022-12-19T17:30:42.727Z,14.52
2022-12-19T17:33:15.375Z,16.10
2022-12-19T17:35:45.842Z,15.20
2022-12-19T17:38:15.676Z,11.85
2022-12-19T17:40:45.219Z,13.13
2022-12-19T17:43:14.408Z,14.88
2022-12-19T17:45:43.185Z,13.90
2022-12-19T17:48:22.354Z,15.38
2022-12-19T17:50:52.736Z,16.23
2022-12-19T17:53:21.809Z,16.73
2022-12-19T17:55:50.850Z,15.32
2022-12-19T17:58:19.769Z,13.82
2022-12-19T18:00:55.004Z,15.90
2022-12-19T18:03:25.453Z,14.00
2022-12-19T18:05:56.497Z,13.10
2022-12-19T18:08:28.273Z,14.52
2022-12-19T18:11:00.438Z,13.43
2022-12-19T18:13:30.987Z,14.63
2022-12-19T18:16:02.140Z,11.80
2022-12-19T18:18:32.915Z,13.32
2022-12-19T18:21:03.431Z,10.32
2022-12-19T18:23:32.070Z,11.05
2022-12-19T18:26:02.998Z,10.40
2022-12-19T18:28:31.666Z,11.50
2022-12-19T18:31:02.785Z,10.98
2022-12-19T18:33:38.775Z,8.88
2022-12-19T18:36:16.082Z,10.95
2022-12-19T18:38:44.714Z,12.10
2022-12-19T18:41:13.735Z,10.90
2022-12-19T18:43:42.199Z,12.05
2022-12-19T18:46:14.647Z,10.18
2022-12-19T18:48:44.777Z,11.65
2022-12-19T18:51:17.287Z,12.10
2022-12-19T18:53:47.396Z,12.25
2022-12-19T18:56:16.204Z,10.32
2022-12-19T18:58:44.712Z,10.35
2022-12-19T19:01:16.519Z,9.82
2022-12-19T19:03:49.617Z,10.75
2022-12-19T19:06:21.936Z,12.18
2022-12-19T19:08:52.064Z,9.40
2022-12-19T19:11:30.928Z,8.75
2022-12-19T19:13:59.468Z,11.70
2022-12-19T19:16:28.798Z,10.05
2022-12-19T19:18:59.406Z,9.25
2022-12-19T19:21:33.448Z,13.63
2022-12-19T19:24:06.884Z,9.43
2022-12-19T19:26:35.580Z,9.93
2022-12-19T19:29:04.797Z,7.72
2022-12-19T19:31:37.799Z,7.30
2022-12-19T19:34:12.229Z,9.40
2022-12-19T19:36:44.965Z,12.68
2022-12-19T19:39:14.788Z,9.63
2022-12-19T19:41:43.496Z,11.27
2022-12-19T19:44:11.993Z,11.05
2022-12-19T19:46:40.596Z,15.75
2022-12-19T19:49:09.127Z,15.07
2022-12-19T19:51:39.326Z,9.02
2022-12-19T19:54:09.778Z,7.15
2022-12-19T19:56:38.370Z,4.85
2022-12-19T19:59:07.824Z,4.72
2022-12-19T20:01:36.579Z,7.03
2022-12-19T20:04:05.936Z,5.20
2022-12-19T20:06:34.908Z,6.80
2022-12-19T20:09:03.475Z,5.25
2022-12-19T20:11:33.375Z,5.40
2022-12-19T20:14:02.398Z,5.88
2022-12-19T20:16:31.487Z,5.20
2022-12-19T20:19:00.321Z,5.57
2022-12-19T20:21:30.612Z,5.35
2022-12-19T20:23:59.149Z,6.63
2022-12-19T20:26:27.912Z,5.22
2022-12-19T20:28:57.758Z,4.78
2022-12-19T20:31:26.336Z,5.00
2022-12-19T20:33:56.218Z,4.80
2022-12-19T20:36:25.227Z,4.45
2022-12-19T20:38:53.834Z,4.28
2022-12-19T20:41:22.769Z,4.13
2022-12-19T20:43:52.929Z,3.78
2022-12-19T20:46:23.548Z,4.63
2022-12-19T20:48:52.620Z,3.85
2022-12-19T20:51:25.163Z,7.28
2022-12-19T20:53:54.780Z,4.88
2022-12-19T20:56:25.702Z,4.18
2022-12-19T20:58:54.320Z,5.55
2022-12-19T21:01:26.133Z,3.22
2022-12-19T21:03:54.936Z,5.45
2022-12-19T21:06:27.059Z,4.28
2022-12-19T21:08:57.633Z,3.38
2022-12-19T21:11:27.248Z,4.57
2022-12-19T21:13:55.924Z,4.65
2022-12-19T21:16:27.181Z,5.63
2022-12-19T21:18:55.790Z,4.57
2022-12-19T21:21:26.473Z,4.65
2022-12-19T21:23:56.234Z,4.13
2022-12-19T21:26:26.023Z,6.32
2022-12-19T21:28:55.033Z,4.75
2022-12-19T21:31:28.027Z,3.85
2022-12-19T21:33:58.216Z,4.70
2022-12-19T21:36:27.925Z,5.00
2022-12-19T21:38:59.159Z,5.25
2022-12-19T21:41:27.997Z,3.78
2022-12-19T21:43:57.456Z,5.63
2022-12-19T21:46:29.205Z,6.65
2022-12-19T21:48:58.551Z,4.70
2022-12-19T21:51:29.340Z,3.63
2022-12-19T21:54:00.371Z,5.50
2022-12-19T21:56:30.852Z,4.97
2022-12-19T21:59:01.791Z,3.55
2022-12-19T22:01:32.721Z,5.20
2022-12-19T22:04:02.332Z,3.50
2022-12-19T22:06:32.745Z,4.97
2022-12-19T22:09:02.254Z,4.22
2022-12-19T22:11:31.603Z,4.97
2022-12-19T22:14:01.211Z,3.70
2022-12-19T22:16:31.562Z,2.63
2022-12-19T22:19:00.667Z,2.63
2022-12-19T22:21:29.615Z,4.30
2022-12-19T22:23:59.005Z,5.88
2022-12-19T22:26:29.535Z,3.70
2022-12-19T22:28:58.858Z,3.78
2022-12-19T22:31:29.534Z,2.83
2022-12-19T22:34:01.116Z,3.03
2022-12-19T22:36:31.951Z,4.43
2022-12-19T22:39:02.285Z,3.22
2022-12-19T22:41:31.467Z,2.63
2022-12-19T22:44:00.266Z,3.28
2022-12-19T22:46:31.858Z,4.03
2022-12-19T22:49:04.176Z,3.47
2022-12-19T22:51:34.709Z,5.00
2022-12-19T22:54:04.512Z,4.28
2022-12-19T22:56:34.352Z,3.97
2022-12-19T22:59:05.319Z,3.28
2022-12-19T23:01:36.766Z,3.33
2022-12-19T23:04:09.544Z,3.47
2022-12-19T23:06:39.223Z,3.58
2022-12-19T23:09:09.860Z,4.78
2022-12-19T23:11:41.338Z,2.67
2022-12-19T23:14:14.641Z,4.50
2022-12-19T23:16:43.817Z,2.72
2022-12-19T23:19:15.439Z,3.72
2022-12-19T23:21:44.479Z,3.20
2022-12-19T23:24:13.642Z,4.25
2022-12-19T23:26:42.245Z,2.35
2022-12-19T23:29:12.852Z,5.13
2022-12-19T23:31:42.259Z,2.95
2022-12-19T23:34:11.448Z,2.33
2022-12-19T23:39:30.100Z,2.38
2022-12-19T23:41:58.589Z,2.97
2022-12-19T23:44:27.471Z,4.05
2022-12-19T23:47:02.705Z,3.95
2022-12-19T23:49:32.237Z,5.65
2022-12-19T23:52:02.438Z,3.78
2022-12-19T23:54:31.290Z,2.67
2022-12-19T23:56:59.868Z,2.63
2022-12-19T23:59:28.416Z,5.55
